Airfield :
LOGIN :

Register | Disclaimer

   EN    FR    IT 

 










Legend :    VFR   Marginal VFR   IFR   Intensive IFR   Very Intensive IFR
Visi :
Ceiling :
>= 8 km
>= 3000ft
5 to 8 km
1000 to 3000 ft
1500m to 5 km
500 to 1000 ft
800 to 1500m
200 to 500 ft
< 800m
< 200 ft
Symbols :   Thunderstorms  Fog  Heavy snow  Heavy precipitations  Wind > 20 kt
SIGMETs :     Misc.  Thunderstorms  Icing  Turbulence  Mountain Waves  Volcanic Ashes







- Airport Elevation : 33 ft
- IATA code : MHZ


EGUN - RAF Mildenhall

CURRENT METAR :
  • 181056Z AUTO 26012KT 9999 CLR 09/09 A3013 RMK AO2 SLP207 T00860086 .

EXPIRED METARs :
  • 180956Z AUTO 26012KT 9999 CLR 07/07 A3015 RMK AO2 SLP213 T00690069 .

TAF TAF EGUN
Valid from the 18 at 04:00 until the 19 at 10:00 UTC


180400Z 1804/1910 25009KT 9999 BKN030 620305 QNH3016INS
BECMG 1811/1812 26012KT 9999 BKN020 620405 620903 QNH3010INS
TEMPO 1811/1815 27010G20KT BKN010
BECMG 1903/1904 30009KT 9999 SCT020 QNH3005INS TX10/1815Z TNM02/1904Z
No reported NOTAMs for that airfield.



MET'MAP, your aeronautical weather chart ! - Copyright ORBIFLY December 2007 - Disclaimer

ORBIFLY MET'MAP TEAM :

Programming & Development : Alexandra Zaïnal
Concept & Development : Baudouin d'Aumeries
Co-Development & Prog : Marc-Olivier Méhu
Technical & hardware support : Manuel Goepfert

Contact : metmap@orbifly.com




SOURCES & CREDITS :

   NOAA